sensor_id;sensor_type;location;lat;lon;timestamp;pressure;altitude;pressure_sealevel;temperature;humidity
39773;BME280;25451;51.960;6.250;2023-07-31T00:00:11;100865.16;;;17.75;74.97
39773;BME280;25451;51.960;6.250;2023-07-31T00:02:36;100871.06;;;17.73;75.03
39773;BME280;25451;51.960;6.250;2023-07-31T00:05:02;100874.41;;;17.70;75.11
39773;BME280;25451;51.960;6.250;2023-07-31T00:07:27;100868.81;;;17.70;75.14
39773;BME280;25451;51.960;6.250;2023-07-31T00:09:52;100864.94;;;17.71;75.29
39773;BME280;25451;51.960;6.250;2023-07-31T00:12:19;100867.97;;;17.70;75.29
39773;BME280;25451;51.960;6.250;2023-07-31T00:14:44;100857.41;;;17.67;75.46
39773;BME280;25451;51.960;6.250;2023-07-31T00:17:10;100858.25;;;17.67;75.51
39773;BME280;25451;51.960;6.250;2023-07-31T00:19:36;100848.81;;;17.63;75.50
39773;BME280;25451;51.960;6.250;2023-07-31T00:22:01;100851.28;;;17.65;75.68
39773;BME280;25451;51.960;6.250;2023-07-31T00:24:26;100847.41;;;17.61;75.38
39773;BME280;25451;51.960;6.250;2023-07-31T00:26:52;100848.81;;;17.63;75.83
39773;BME280;25451;51.960;6.250;2023-07-31T00:29:17;100848.25;;;17.61;75.74
39773;BME280;25451;51.960;6.250;2023-07-31T00:31:42;100844.31;;;17.62;75.86
39773;BME280;25451;51.960;6.250;2023-07-31T00:34:07;100832.91;;;17.59;75.94
39773;BME280;25451;51.960;6.250;2023-07-31T00:36:33;100830.13;;;17.59;76.08
39773;BME280;25451;51.960;6.250;2023-07-31T00:38:58;100832.91;;;17.59;76.06
39773;BME280;25451;51.960;6.250;2023-07-31T00:41:23;100830.41;;;17.57;76.16
39773;BME280;25451;51.960;6.250;2023-07-31T00:43:49;100830.41;;;17.57;76.24
39773;BME280;25451;51.960;6.250;2023-07-31T00:46:15;100824.81;;;17.57;76.31
39773;BME280;25451;51.960;6.250;2023-07-31T00:48:41;100823.16;;;17.56;76.50
39773;BME280;25451;51.960;6.250;2023-07-31T00:51:07;100827.91;;;17.56;76.61
39773;BME280;25451;51.960;6.250;2023-07-31T00:53:33;100813.09;;;17.55;76.50
39773;BME280;25451;51.960;6.250;2023-07-31T00:55:59;100813.09;;;17.55;76.51
39773;BME280;25451;51.960;6.250;2023-07-31T00:58:24;100817.03;;;17.54;76.70
39773;BME280;25451;51.960;6.250;2023-07-31T01:00:49;100809.50;;;17.55;76.66
39773;BME280;25451;51.960;6.250;2023-07-31T01:03:16;100805.88;;;17.54;76.76
39773;BME280;25451;51.960;6.250;2023-07-31T01:11:24;100801.41;;;17.53;77.02
39773;BME280;25451;51.960;6.250;2023-07-31T01:13:51;100794.16;;;17.52;77.05
39773;BME280;25451;51.960;6.250;2023-07-31T01:16:16;100795.81;;;17.53;77.00
39773;BME280;25451;51.960;6.250;2023-07-31T01:18:41;100793.03;;;17.53;77.15
39773;BME280;25451;51.960;6.250;2023-07-31T01:26:33;100791.91;;;17.54;77.50
39773;BME280;25451;51.960;6.250;2023-07-31T01:29:26;100786.88;;;17.56;77.49
39773;BME280;25451;51.960;6.250;2023-07-31T01:31:56;100793.56;;;17.55;77.67
39773;BME280;25451;51.960;6.250;2023-07-31T01:34:23;100782.41;;;17.55;77.71
39773;BME280;25451;51.960;6.250;2023-07-31T01:36:48;100789.91;;;17.60;77.87
39773;BME280;25451;51.960;6.250;2023-07-31T01:39:14;100789.91;;;17.60;77.99
39773;BME280;25451;51.960;6.250;2023-07-31T01:41:40;100791.28;;;17.62;78.08
39773;BME280;25451;51.960;6.250;2023-07-31T01:44:06;100786.25;;;17.64;78.06
39773;BME280;25451;51.960;6.250;2023-07-31T01:46:31;100792.38;;;17.66;78.09
39773;BME280;25451;51.960;6.250;2023-07-31T01:48:57;100774.78;;;17.66;78.26
39773;BME280;25451;51.960;6.250;2023-07-31T01:51:22;100765.00;;;17.68;78.39
39773;BME280;25451;51.960;6.250;2023-07-31T01:53:47;100771.13;;;17.70;78.43
39773;BME280;25451;51.960;6.250;2023-07-31T01:56:13;100772.81;;;17.71;78.40
39773;BME280;25451;51.960;6.250;2023-07-31T01:58:38;100766.06;;;17.72;78.43
39773;BME280;25451;51.960;6.250;2023-07-31T02:01:03;100765.22;;;17.72;78.55
39773;BME280;25451;51.960;6.250;2023-07-31T02:03:29;100761.63;;;17.71;78.63
39773;BME280;25451;51.960;6.250;2023-07-31T02:05:54;100765.50;;;17.75;78.62
39773;BME280;25451;51.960;6.250;2023-07-31T02:08:20;100762.41;;;17.77;78.73
39773;BME280;25451;51.960;6.250;2023-07-31T02:10:45;100756.81;;;17.77;78.72
39773;BME280;25451;51.960;6.250;2023-07-31T02:13:10;100750.69;;;17.75;79.03
39773;BME280;25451;51.960;6.250;2023-07-31T02:15:36;100750.94;;;17.78;78.82
39773;BME280;25451;51.960;6.250;2023-07-31T02:18:01;100756.53;;;17.78;78.99
39773;BME280;25451;51.960;6.250;2023-07-31T02:20:27;100758.22;;;17.79;79.02
39773;BME280;25451;51.960;6.250;2023-07-31T02:22:52;100757.38;;;17.79;79.20
39773;BME280;25451;51.960;6.250;2023-07-31T02:25:17;100743.41;;;17.79;79.33
39773;BME280;25451;51.960;6.250;2023-07-31T02:27:43;100746.19;;;17.79;79.21
39773;BME280;25451;51.960;6.250;2023-07-31T02:30:08;100742.56;;;17.78;79.70
39773;BME280;25451;51.960;6.250;2023-07-31T02:32:34;100722.00;;;17.69;79.41
39773;BME280;25451;51.960;6.250;2023-07-31T02:34:59;100731.09;;;17.80;79.48
39773;BME280;25451;51.960;6.250;2023-07-31T02:37:25;100738.34;;;17.81;79.67
39773;BME280;25451;51.960;6.250;2023-07-31T02:39:50;100737.50;;;17.80;79.48
39773;BME280;25451;51.960;6.250;2023-07-31T02:42:16;100735.88;;;17.79;79.59
39773;BME280;25451;51.960;6.250;2023-07-31T02:44:41;100729.97;;;17.81;79.77
39773;BME280;25451;51.960;6.250;2023-07-31T02:47:06;100730.28;;;17.79;79.73
39773;BME280;25451;51.960;6.250;2023-07-31T02:49:32;100725.25;;;17.81;79.62
39773;BME280;25451;51.960;6.250;2023-07-31T02:51:57;100727.50;;;17.79;79.79
39773;BME280;25451;51.960;6.250;2023-07-31T02:54:22;100721.91;;;17.79;79.83
39773;BME280;25451;51.960;6.250;2023-07-31T02:56:48;100713.81;;;17.78;79.78
39773;BME280;25451;51.960;6.250;2023-07-31T02:59:13;100717.97;;;17.80;79.80
39773;BME280;25451;51.960;6.250;2023-07-31T03:01:38;100724.16;;;17.77;79.85
39773;BME280;25451;51.960;6.250;2023-07-31T03:04:04;100725.25;;;17.81;79.81
39773;BME280;25451;51.960;6.250;2023-07-31T03:06:29;100725.25;;;17.81;79.93
39773;BME280;25451;51.960;6.250;2023-07-31T03:08:55;100721.41;;;17.72;79.98
39773;BME280;25451;51.960;6.250;2023-07-31T03:11:20;100729.16;;;17.80;79.96
39773;BME280;25451;51.960;6.250;2023-07-31T03:13:45;100735.56;;;17.81;79.91
39773;BME280;25451;51.960;6.250;2023-07-31T03:16:11;100720.22;;;17.78;80.14
39773;BME280;25451;51.960;6.250;2023-07-31T03:18:36;100734.72;;;17.80;80.13
39773;BME280;25451;51.960;6.250;2023-07-31T03:21:01;100725.81;;;17.78;80.05
39773;BME280;25451;51.960;6.250;2023-07-31T03:23:27;100733.66;;;17.76;80.06
39773;BME280;25451;51.960;6.250;2023-07-31T03:26:00;100726.41;;;17.75;80.27
39773;BME280;25451;51.960;6.250;2023-07-31T03:28:26;100733.06;;;17.79;80.19
39773;BME280;25451;51.960;6.250;2023-07-31T03:30:52;100736.69;;;17.80;80.27
39773;BME280;25451;51.960;6.250;2023-07-31T03:33:17;100733.66;;;17.76;80.38
39773;BME280;25451;51.960;6.250;2023-07-31T03:35:43;100730.28;;;17.79;80.52
39773;BME280;25451;51.960;6.250;2023-07-31T03:38:08;100732.22;;;17.79;80.42
39773;BME280;25451;51.960;6.250;2023-07-31T03:40:33;100731.69;;;17.77;80.23
39773;BME280;25451;51.960;6.250;2023-07-31T03:42:59;100735.06;;;17.74;80.32
39773;BME280;25451;51.960;6.250;2023-07-31T03:45:24;100729.22;;;17.75;80.36
39773;BME280;25451;51.960;6.250;2023-07-31T03:47:49;100726.41;;;17.75;80.50
39773;BME280;25451;51.960;6.250;2023-07-31T03:50:15;100731.72;;;17.72;80.50
39773;BME280;25451;51.960;6.250;2023-07-31T03:52:41;100722.25;;;17.73;80.47
39773;BME280;25451;51.960;6.250;2023-07-31T03:55:06;100718.06;;;17.70;80.61
39773;BME280;25451;51.960;6.250;2023-07-31T03:57:32;100723.34;;;17.72;80.37
39773;BME280;25451;51.960;6.250;2023-07-31T03:59:57;100718.91;;;17.71;80.62
39773;BME280;25451;51.960;6.250;2023-07-31T04:02:23;100718.06;;;17.70;80.61
39773;BME280;25451;51.960;6.250;2023-07-31T04:04:48;100718.91;;;17.71;80.59
39773;BME280;25451;51.960;6.250;2023-07-31T04:07:14;100722.00;;;17.69;80.66
39773;BME280;25451;51.960;6.250;2023-07-31T04:09:39;100724.81;;;17.69;80.63
39773;BME280;25451;51.960;6.250;2023-07-31T04:12:04;100712.03;;;17.63;80.61
39773;BME280;25451;51.960;6.250;2023-07-31T04:14:30;100722.59;;;17.66;80.58
39773;BME280;25451;51.960;6.250;2023-07-31T04:16:55;100722.59;;;17.66;80.49
39773;BME280;25451;51.960;6.250;2023-07-31T04:19:21;100720.94;;;17.65;80.54
39773;BME280;25451;51.960;6.250;2023-07-31T04:21:46;100717.59;;;17.63;80.58
39773;BME280;25451;51.960;6.250;2023-07-31T04:24:11;100717.59;;;17.63;80.62
39773;BME280;25451;51.960;6.250;2023-07-31T04:26:36;100712.03;;;17.63;80.52
39773;BME280;25451;51.960;6.250;2023-07-31T04:29:02;100710.91;;;17.59;80.53
39773;BME280;25451;51.960;6.250;2023-07-31T04:31:27;100714.50;;;17.65;80.52
39773;BME280;25451;51.960;6.250;2023-07-31T04:33:52;100713.69;;;17.64;80.27
39773;BME280;25451;51.960;6.250;2023-07-31T04:36:18;100713.38;;;17.66;80.66
39773;BME280;25451;51.960;6.250;2023-07-31T04:38:43;100707.56;;;17.62;80.39
39773;BME280;25451;51.960;6.250;2023-07-31T04:41:08;100709.50;;;17.62;80.33
39773;BME280;25451;51.960;6.250;2023-07-31T04:43:34;100704.19;;;17.65;80.43
39773;BME280;25451;51.960;6.250;2023-07-31T04:45:59;100706.97;;;17.65;80.32
39773;BME280;25451;51.960;6.250;2023-07-31T04:48:24;100705.28;;;17.64;80.39
39773;BME280;25451;51.960;6.250;2023-07-31T04:50:50;100696.94;;;17.64;80.52
39773;BME280;25451;51.960;6.250;2023-07-31T04:53:15;100696.94;;;17.64;80.44
39773;BME280;25451;51.960;6.250;2023-07-31T04:55:40;100690.50;;;17.64;80.53
39773;BME280;25451;51.960;6.250;2023-07-31T04:58:06;100696.94;;;17.64;80.34
39773;BME280;25451;51.960;6.250;2023-07-31T05:00:31;100689.69;;;17.63;80.36
39773;BME280;25451;51.960;6.250;2023-07-31T05:02:57;100684.91;;;17.64;80.49
39773;BME280;25451;51.960;6.250;2023-07-31T05:05:22;100682.44;;;17.62;80.41
39773;BME280;25451;51.960;6.250;2023-07-31T05:07:47;100687.16;;;17.62;80.51
39773;BME280;25451;51.960;6.250;2023-07-31T05:10:13;100684.13;;;17.63;80.52
39773;BME280;25451;51.960;6.250;2023-07-31T05:12:38;100680.47;;;17.63;80.33
39773;BME280;25451;51.960;6.250;2023-07-31T05:15:04;100688.00;;;17.62;80.60
39773;BME280;25451;51.960;6.250;2023-07-31T05:17:29;100681.59;;;17.62;80.61
39773;BME280;25451;51.960;6.250;2023-07-31T05:19:55;100679.09;;;17.60;80.26
39773;BME280;25451;51.960;6.250;2023-07-31T05:22:20;100674.06;;;17.62;80.52
39773;BME280;25451;51.960;6.250;2023-07-31T05:24:45;100655.66;;;17.61;80.54
39773;BME280;25451;51.960;6.250;2023-07-31T05:27:11;100663.72;;;17.63;80.49
39773;BME280;25451;51.960;6.250;2023-07-31T05:29:37;100660.09;;;17.62;80.50
39773;BME280;25451;51.960;6.250;2023-07-31T05:32:03;100657.63;;;17.61;80.60
39773;BME280;25451;51.960;6.250;2023-07-31T05:34:28;100652.25;;;17.64;80.61
39773;BME280;25451;51.960;6.250;2023-07-31T05:36:53;100648.94;;;17.62;80.50
39773;BME280;25451;51.960;6.250;2023-07-31T05:39:19;100660.34;;;17.66;80.57
39773;BME280;25451;51.960;6.250;2023-07-31T05:41:45;100651.69;;;17.67;80.60
39773;BME280;25451;51.960;6.250;2023-07-31T05:44:10;100638.31;;;17.64;80.44
39773;BME280;25451;51.960;6.250;2023-07-31T05:46:36;100635.22;;;17.66;80.46
39773;BME280;25451;51.960;6.250;2023-07-31T05:49:01;100647.75;;;17.68;80.59
39773;BME280;25451;51.960;6.250;2023-07-31T05:51:27;100652.22;;;17.69;80.61
39773;BME280;25451;51.960;6.250;2023-07-31T05:53:53;100646.91;;;17.68;80.59
39773;BME280;25451;51.960;6.250;2023-07-31T05:56:18;100639.38;;;17.68;80.65
39773;BME280;25451;51.960;6.250;2023-07-31T05:58:43;100643.84;;;17.69;80.65
39773;BME280;25451;51.960;6.250;2023-07-31T06:01:09;100637.13;;;17.70;80.72
39773;BME280;25451;51.960;6.250;2023-07-31T06:03:34;100637.66;;;17.72;80.76
39773;BME280;25451;51.960;6.250;2023-07-31T06:05:59;100638.81;;;17.71;80.71
39773;BME280;25451;51.960;6.250;2023-07-31T06:08:25;100643.47;;;17.76;80.72
39773;BME280;25451;51.960;6.250;2023-07-31T06:10:50;100639.03;;;17.75;80.85
39773;BME280;25451;51.960;6.250;2023-07-31T06:13:16;100639.56;;;17.77;80.63
39773;BME280;25451;51.960;6.250;2023-07-31T06:15:41;100640.41;;;17.77;80.72
39773;BME280;25451;51.960;6.250;2023-07-31T06:18:06;100631.19;;;17.77;80.78
39773;BME280;25451;51.960;6.250;2023-07-31T06:20:33;100633.16;;;17.76;80.84
39773;BME280;25451;51.960;6.250;2023-07-31T06:22:59;100632.03;;;17.77;80.99
39773;BME280;25451;51.960;6.250;2023-07-31T06:25:24;100629.25;;;17.77;81.04
39773;BME280;25451;51.960;6.250;2023-07-31T06:27:49;100625.59;;;17.77;81.06
39773;BME280;25451;51.960;6.250;2023-07-31T06:30:15;100622.22;;;17.80;81.06
39773;BME280;25451;51.960;6.250;2023-07-31T06:32:40;100621.63;;;17.83;80.95
39773;BME280;25451;51.960;6.250;2023-07-31T06:35:06;100620.78;;;17.82;81.12
39773;BME280;25451;51.960;6.250;2023-07-31T06:37:31;100610.47;;;17.83;81.13
39773;BME280;25451;51.960;6.250;2023-07-31T06:39:57;100614.63;;;17.85;81.30
39773;BME280;25451;51.960;6.250;2023-07-31T06:42:22;100616.81;;;17.88;81.16
39773;BME280;25451;51.960;6.250;2023-07-31T06:44:47;100617.34;;;17.90;81.25
39773;BME280;25451;51.960;6.250;2023-07-31T06:47:13;100607.84;;;17.91;81.10
39773;BME280;25451;51.960;6.250;2023-07-31T06:49:38;100607.00;;;17.91;81.29
39773;BME280;25451;51.960;6.250;2023-07-31T06:52:04;100610.31;;;17.93;81.32
39773;BME280;25451;51.960;6.250;2023-07-31T06:54:29;100598.84;;;17.94;81.36
39773;BME280;25451;51.960;6.250;2023-07-31T06:56:54;100607.75;;;17.96;81.41
39773;BME280;25451;51.960;6.250;2023-07-31T06:59:20;100601.06;;;17.97;81.42
39773;BME280;25451;51.960;6.250;2023-07-31T07:01:45;100588.44;;;18.00;81.47
39773;BME280;25451;51.960;6.250;2023-07-31T07:04:10;100598.19;;;18.02;81.53
39773;BME280;25451;51.960;6.250;2023-07-31T07:06:36;100592.31;;;18.04;81.28
39773;BME280;25451;51.960;6.250;2023-07-31T07:09:01;100590.59;;;18.08;81.38
39773;BME280;25451;51.960;6.250;2023-07-31T07:11:28;100573.59;;;18.04;81.56
39773;BME280;25451;51.960;6.250;2023-07-31T07:13:53;100579.13;;;18.09;81.54
39773;BME280;25451;51.960;6.250;2023-07-31T07:16:18;100574.91;;;18.12;81.34
39773;BME280;25451;51.960;6.250;2023-07-31T07:18:44;100574.91;;;18.12;81.50
39773;BME280;25451;51.960;6.250;2023-07-31T07:21:09;100580.69;;;18.15;81.70
39773;BME280;25451;51.960;6.250;2023-07-31T07:23:34;100570.38;;;18.16;81.76
39773;BME280;25451;51.960;6.250;2023-07-31T07:26:00;100577.81;;;18.20;81.53
39773;BME280;25451;51.960;6.250;2023-07-31T07:28:25;100572.75;;;18.22;81.78
39773;BME280;25451;51.960;6.250;2023-07-31T07:30:51;100566.91;;;18.24;81.86
39773;BME280;25451;51.960;6.250;2023-07-31T07:33:18;100558.25;;;18.20;81.69
39773;BME280;25451;51.960;6.250;2023-07-31T07:35:44;100544.06;;;18.17;81.80
39773;BME280;25451;51.960;6.250;2023-07-31T07:38:09;100565.97;;;18.29;81.81
39773;BME280;25451;51.960;6.250;2023-07-31T07:40:39;100559.25;;;18.30;81.97
39773;BME280;25451;51.960;6.250;2023-07-31T07:43:04;100565.06;;;18.33;81.84
39773;BME280;25451;51.960;6.250;2023-07-31T07:45:31;100561.16;;;18.34;82.04
39773;BME280;25451;51.960;6.250;2023-07-31T07:47:56;100561.38;;;18.38;82.00
39773;BME280;25451;51.960;6.250;2023-07-31T07:50:21;100561.59;;;18.41;82.06
39773;BME280;25451;51.960;6.250;2023-07-31T07:52:46;100557.69;;;18.42;81.92
39773;BME280;25451;51.960;6.250;2023-07-31T07:55:12;100567.44;;;18.45;81.96
39773;BME280;25451;51.960;6.250;2023-07-31T07:57:37;100554.00;;;18.47;81.80
39773;BME280;25451;51.960;6.250;2023-07-31T08:00:03;100554.00;;;18.47;81.96
39773;BME280;25451;51.960;6.250;2023-07-31T08:02:28;100557.34;;;18.49;82.44
39773;BME280;25451;51.960;6.250;2023-07-31T08:04:53;100547.28;;;18.48;81.90
39773;BME280;25451;51.960;6.250;2023-07-31T08:07:19;100546.91;;;18.54;81.98
39773;BME280;25451;51.960;6.250;2023-07-31T08:09:44;100543.56;;;18.52;82.17
39773;BME280;25451;51.960;6.250;2023-07-31T08:12:09;100535.41;;;18.56;82.28
39773;BME280;25451;51.960;6.250;2023-07-31T08:14:35;100531.16;;;18.58;82.30
39773;BME280;25451;51.960;6.250;2023-07-31T08:17:01;100541.72;;;18.61;82.15
39773;BME280;25451;51.960;6.250;2023-07-31T08:19:27;100534.50;;;18.60;82.32
39773;BME280;25451;51.960;6.250;2023-07-31T08:21:52;100522.47;;;18.60;82.56
39773;BME280;25451;51.960;6.250;2023-07-31T08:24:17;100536.66;;;18.63;82.26
39773;BME280;25451;51.960;6.250;2023-07-31T08:26:43;100537.50;;;18.64;82.23
39773;BME280;25451;51.960;6.250;2023-07-31T08:29:08;100531.31;;;18.67;82.30
39773;BME280;25451;51.960;6.250;2023-07-31T08:31:33;100541.34;;;18.68;82.37
39773;BME280;25451;51.960;6.250;2023-07-31T08:34:00;100539.38;;;18.68;82.45
39773;BME280;25451;51.960;6.250;2023-07-31T08:36:25;100538.75;;;18.71;82.37
39773;BME280;25451;51.960;6.250;2023-07-31T08:38:50;100530.38;;;18.71;82.33
39773;BME280;25451;51.960;6.250;2023-07-31T08:41:16;100537.31;;;18.74;82.45
39773;BME280;25451;51.960;6.250;2023-07-31T08:43:46;100535.06;;;18.76;82.66
39773;BME280;25451;51.960;6.250;2023-07-31T08:46:12;100528.34;;;18.77;82.44
39773;BME280;25451;51.960;6.250;2023-07-31T08:48:41;100533.31;;;18.80;82.64
39773;BME280;25451;51.960;6.250;2023-07-31T08:51:06;100530.50;;;18.80;82.46
39773;BME280;25451;51.960;6.250;2023-07-31T08:53:32;100539.44;;;18.82;82.47
39773;BME280;25451;51.960;6.250;2023-07-31T08:55:58;100525.97;;;18.84;82.51
39773;BME280;25451;51.960;6.250;2023-07-31T08:58:25;100522.56;;;18.87;82.49
39773;BME280;25451;51.960;6.250;2023-07-31T09:00:51;100522.78;;;18.90;82.71
39773;BME280;25451;51.960;6.250;2023-07-31T09:03:18;100530.66;;;18.88;82.68
39773;BME280;25451;51.960;6.250;2023-07-31T09:05:45;100530.25;;;18.95;82.64
39773;BME280;25451;51.960;6.250;2023-07-31T09:08:15;100532.41;;;18.98;82.58
39773;BME280;25451;51.960;6.250;2023-07-31T09:10:43;100527.34;;;19.00;82.64
39773;BME280;25451;51.960;6.250;2023-07-31T09:13:11;100521.75;;;19.00;82.77
39773;BME280;25451;51.960;6.250;2023-07-31T09:15:36;100517.31;;;18.99;82.59
39773;BME280;25451;51.960;6.250;2023-07-31T09:18:04;100521.69;;;19.05;82.86
39773;BME280;25451;51.960;6.250;2023-07-31T09:20:30;100508.53;;;19.06;82.66
39773;BME280;25451;51.960;6.250;2023-07-31T09:23:05;100518.78;;;19.10;82.89
39773;BME280;25451;51.960;6.250;2023-07-31T09:25:30;100517.00;;;19.14;82.91
39773;BME280;25451;51.960;6.250;2023-07-31T09:27:58;100512.78;;;19.17;82.88
39773;BME280;25451;51.960;6.250;2023-07-31T09:30:24;100516.94;;;19.19;82.79
39773;BME280;25451;51.960;6.250;2023-07-31T09:32:51;100515.47;;;19.22;82.98
39773;BME280;25451;51.960;6.250;2023-07-31T09:35:28;100521.88;;;19.22;83.10
39773;BME280;25451;51.960;6.250;2023-07-31T09:37:57;100506.78;;;19.23;83.02
39773;BME280;25451;51.960;6.250;2023-07-31T09:40:29;100511.44;;;19.28;82.94
39773;BME280;25451;51.960;6.250;2023-07-31T09:43:03;100510.63;;;19.27;82.98
39773;BME280;25451;51.960;6.250;2023-07-31T09:45:29;100505.34;;;19.26;83.13
39773;BME280;25451;51.960;6.250;2023-07-31T09:47:56;100511.75;;;19.26;82.95
39773;BME280;25451;51.960;6.250;2023-07-31T09:50:23;100502.53;;;19.26;83.15
39773;BME280;25451;51.960;6.250;2023-07-31T09:52:49;100504.50;;;19.25;83.06
39773;BME280;25451;51.960;6.250;2023-07-31T09:55:14;100498.06;;;19.25;83.21
39773;BME280;25451;51.960;6.250;2023-07-31T09:57:41;100491.75;;;19.19;83.08
39773;BME280;25451;51.960;6.250;2023-07-31T10:00:10;100500.53;;;19.26;83.25
39773;BME280;25451;51.960;6.250;2023-07-31T10:02:37;100487.78;;;19.20;83.15
39773;BME280;25451;51.960;6.250;2023-07-31T10:05:03;100487.72;;;19.25;83.24
39773;BME280;25451;51.960;6.250;2023-07-31T10:07:30;100500.53;;;19.26;83.17
39773;BME280;25451;51.960;6.250;2023-07-31T10:10:00;100486.88;;;19.25;83.30
39773;BME280;25451;51.960;6.250;2023-07-31T10:12:26;100494.44;;;19.24;83.33
39773;BME280;25451;51.960;6.250;2023-07-31T10:14:55;100499.72;;;19.26;83.40
39773;BME280;25451;51.960;6.250;2023-07-31T10:17:24;100505.34;;;19.26;83.23
39773;BME280;25451;51.960;6.250;2023-07-31T10:19:49;100497.22;;;19.24;83.22
39773;BME280;25451;51.960;6.250;2023-07-31T10:22:15;100497.75;;;19.26;83.22
39773;BME280;25451;51.960;6.250;2023-07-31T10:24:48;100501.06;;;19.28;83.19
39773;BME280;25451;51.960;6.250;2023-07-31T10:27:14;100492.66;;;19.28;83.23
39773;BME280;25451;51.960;6.250;2023-07-31T10:29:41;100496.81;;;19.31;83.25
39773;BME280;25451;51.960;6.250;2023-07-31T10:32:07;100504.94;;;19.32;83.29
39773;BME280;25451;51.960;6.250;2023-07-31T10:34:35;100492.91;;;19.32;83.30
39773;BME280;25451;51.960;6.250;2023-07-31T10:39:56;100498.41;;;19.37;83.05
39773;BME280;25451;51.960;6.250;2023-07-31T10:42:28;100493.66;;;19.37;83.23
39773;BME280;25451;51.960;6.250;2023-07-31T10:45:08;100494.81;;;19.36;83.24
39773;BME280;25451;51.960;6.250;2023-07-31T10:47:38;100490.25;;;19.40;83.27
39773;BME280;25451;51.960;6.250;2023-07-31T10:50:20;100492.06;;;19.45;83.23
39773;BME280;25451;51.960;6.250;2023-07-31T10:52:47;100490.13;;;19.45;83.31
39773;BME280;25451;51.960;6.250;2023-07-31T10:57:58;100480.47;;;19.51;83.19
39773;BME280;25451;51.960;6.250;2023-07-31T11:00:28;100479.88;;;19.54;83.20
39773;BME280;25451;51.960;6.250;2023-07-31T11:03:01;100475.59;;;19.57;83.11
39773;BME280;25451;51.960;6.250;2023-07-31T11:08:15;100471.75;;;19.66;83.12
39773;BME280;25451;51.960;6.250;2023-07-31T11:10:42;100478.38;;;19.70;83.04
39773;BME280;25451;51.960;6.250;2023-07-31T11:13:08;100489.47;;;19.75;83.14
39773;BME280;25451;51.960;6.250;2023-07-31T11:15:33;100478.16;;;19.80;83.11
39773;BME280;25451;51.960;6.250;2023-07-31T11:18:00;100476.91;;;19.87;83.19
39773;BME280;25451;51.960;6.250;2023-07-31T11:20:32;100468.69;;;19.90;83.21
39773;BME280;25451;51.960;6.250;2023-07-31T11:23:00;100478.97;;;19.95;83.14
39773;BME280;25451;51.960;6.250;2023-07-31T11:25:25;100472.72;;;19.98;83.05
39773;BME280;25451;51.960;6.250;2023-07-31T11:27:51;100472.09;;;20.01;83.14
39773;BME280;25451;51.960;6.250;2023-07-31T11:30:19;100480.69;;;20.04;83.09
39773;BME280;25451;51.960;6.250;2023-07-31T11:32:45;100473.13;;;20.05;83.08
39773;BME280;25451;51.960;6.250;2023-07-31T11:35:13;100478.59;;;20.10;83.09
39773;BME280;25451;51.960;6.250;2023-07-31T11:37:40;100481.38;;;20.10;83.03
39773;BME280;25451;51.960;6.250;2023-07-31T11:40:06;100479.94;;;20.12;83.00
39773;BME280;25451;51.960;6.250;2023-07-31T11:42:32;100472.88;;;20.15;83.00
39773;BME280;25451;51.960;6.250;2023-07-31T11:44:57;100475.16;;;20.13;82.77
39773;BME280;25451;51.960;6.250;2023-07-31T11:47:22;100482.94;;;20.16;83.00
39773;BME280;25451;51.960;6.250;2023-07-31T11:49:50;100478.41;;;20.20;82.95
39773;BME280;25451;51.960;6.250;2023-07-31T11:52:17;100481.22;;;20.20;82.99
39773;BME280;25451;51.960;6.250;2023-07-31T11:54:46;100484.00;;;20.20;82.89
39773;BME280;25451;51.960;6.250;2023-07-31T11:57:11;100475.59;;;20.20;82.89
39773;BME280;25451;51.960;6.250;2023-07-31T11:59:38;100474.75;;;20.19;82.86
39773;BME280;25451;51.960;6.250;2023-07-31T12:02:04;100465.50;;;20.19;82.91
39773;BME280;25451;51.960;6.250;2023-07-31T12:04:30;100470.00;;;20.20;82.91
39773;BME280;25451;51.960;6.250;2023-07-31T12:06:56;100471.09;;;20.19;82.94
39773;BME280;25451;51.960;6.250;2023-07-31T12:09:21;100464.38;;;20.20;82.90
39773;BME280;25451;51.960;6.250;2023-07-31T12:11:47;100464.38;;;20.20;82.84
39773;BME280;25451;51.960;6.250;2023-07-31T12:14:41;100465.50;;;20.19;82.92
39773;BME280;25451;51.960;6.250;2023-07-31T12:17:06;100477.56;;;20.19;82.96
39773;BME280;25451;51.960;6.250;2023-07-31T12:19:32;100468.00;;;20.20;83.00
39773;BME280;25451;51.960;6.250;2023-07-31T12:22:13;100463.75;;;20.23;82.90
39773;BME280;25451;51.960;6.250;2023-07-31T12:24:41;100461.44;;;20.25;82.94
39773;BME280;25451;51.960;6.250;2023-07-31T12:27:14;100467.25;;;20.28;82.99
39773;BME280;25451;51.960;6.250;2023-07-31T12:29:41;100458.53;;;20.30;82.92
39773;BME280;25451;51.960;6.250;2023-07-31T12:32:23;100464.00;;;20.35;82.82
39773;BME280;25451;51.960;6.250;2023-07-31T12:34:50;100460.06;;;20.36;82.75
39773;BME280;25451;51.960;6.250;2023-07-31T12:37:15;100455.91;;;20.33;82.75
39773;BME280;25451;51.960;6.250;2023-07-31T12:39:41;100457.13;;;20.41;82.71
39773;BME280;25451;51.960;6.250;2023-07-31T12:42:06;100456.28;;;20.40;82.47
39773;BME280;25451;51.960;6.250;2023-07-31T12:44:32;100462.72;;;20.41;82.63
39773;BME280;25451;51.960;6.250;2023-07-31T12:46:57;100444.88;;;20.37;82.54
39773;BME280;25451;51.960;6.250;2023-07-31T12:49:22;100450.88;;;20.44;82.75
39773;BME280;25451;51.960;6.250;2023-07-31T12:51:48;100432.84;;;20.36;82.73
39773;BME280;25451;51.960;6.250;2023-07-31T12:54:13;100445.78;;;20.46;82.67
39773;BME280;25451;51.960;6.250;2023-07-31T12:56:39;100439.34;;;20.45;82.59
39773;BME280;25451;51.960;6.250;2023-07-31T12:59:05;100438.50;;;20.45;82.62
39773;BME280;25451;51.960;6.250;2023-07-31T13:01:31;100430.78;;;20.50;82.53
39773;BME280;25451;51.960;6.250;2023-07-31T13:03:56;100440.03;;;20.51;82.58